Time;durP1;ratioP1;P1;durP2;ratioP2;P2;SDS_P1;SDS_P2;PMS_P1;PMS_P2;Temp;Humidity;BMP_temperature;BMP_pressure;BME280_temperature;BME280_humidity;BME280_pressure;Samples;Min_cycle;Max_cycle;Signal;HPM_P1;HPM_P2
2023/01/16 00:01:47;;;;;;;60.53;34.13;;;;;;;;;;6325749;22;20007;-94
2023/01/16 00:04:15;;;;;;;51.13;29.75;;;;;;;;;;6296827;22;20086;-95
2023/01/16 00:06:41;;;;;;;50.35;28.77;;;;;;;;;;6295547;22;20072;-95
2023/01/16 00:09:09;;;;;;;52.17;28.85;;;;;;;;;;6324931;22;19999;-95
2023/01/16 00:11:38;;;;;;;52.63;29.80;;;;;;;;;;6326142;22;20010;-95
2023/01/16 00:14:05;;;;;;;48.63;28.52;;;;;;;;;;6326050;22;19999;-95
2023/01/16 00:16:38;;;;;;;50.25;28.15;;;;;;;;;;6326130;22;20007;-95
2023/01/16 00:19:08;;;;;;;53.28;28.67;;;;;;;;;;6299901;22;20008;-95
2023/01/16 00:21:34;;;;;;;52.50;28.27;;;;;;;;;;6325666;22;20369;-95
2023/01/16 00:24:02;;;;;;;46.45;26.80;;;;;;;;;;6326697;22;20366;-95
2023/01/16 00:26:56;;;;;;;53.22;29.63;;;;;;;;;;6325241;22;20007;-95
2023/01/16 00:29:46;;;;;;;51.05;27.45;;;;;;;;;;6325540;22;20007;-95
2023/01/16 00:32:19;;;;;;;50.50;27.67;;;;;;;;;;6322216;22;19999;-95
2023/01/16 00:37:43;;;;;;;52.38;28.73;;;;;;;;;;6309942;22;20003;-95
2023/01/16 00:43:15;;;;;;;46.42;26.90;;;;;;;;;;6323052;22;20084;-94
2023/01/16 00:45:56;;;;;;;46.38;26.83;;;;;;;;;;6295131;22;20008;-95
2023/01/16 00:48:31;;;;;;;44.78;26.58;;;;;;;;;;6296353;22;20034;-95
2023/01/16 00:50:58;;;;;;;41.05;25.38;;;;;;;;;;6322842;22;20066;-96
2023/01/16 00:53:26;;;;;;;47.08;25.77;;;;;;;;;;6324433;22;20231;-95
2023/01/16 00:59:00;;;;;;;45.05;27.38;;;;;;;;;;6324295;22;20013;-95
2023/01/16 01:01:27;;;;;;;43.07;24.50;;;;;;;;;;6325797;22;20003;-95
2023/01/16 01:03:55;;;;;;;47.13;28.20;;;;;;;;;;6317725;22;20221;-95
2023/01/16 01:06:23;;;;;;;49.80;30.20;;;;;;;;;;6299126;22;20010;-95
2023/01/16 01:08:49;;;;;;;46.22;26.48;;;;;;;;;;6297436;22;20007;-96
2023/01/16 01:11:35;;;;;;;44.38;25.67;;;;;;;;;;6298052;22;19999;-95
2023/01/16 01:14:01;;;;;;;41.90;25.20;;;;;;;;;;6315482;22;20011;-96
2023/01/16 01:16:27;;;;;;;45.83;27.42;;;;;;;;;;6315519;22;20003;-94
2023/01/16 01:18:53;;;;;;;44.20;26.77;;;;;;;;;;6319570;22;20369;-96
2023/01/16 01:21:20;;;;;;;48.90;28.30;;;;;;;;;;6322523;22;20015;-93
2023/01/16 01:23:46;;;;;;;45.55;25.98;;;;;;;;;;6321412;22;19995;-93
2023/01/16 01:26:16;;;;;;;38.97;25.35;;;;;;;;;;6319930;22;20003;-94
2023/01/16 01:28:42;;;;;;;43.15;25.48;;;;;;;;;;6319780;22;19998;-94
2023/01/16 01:31:12;;;;;;;43.45;26.15;;;;;;;;;;6318938;22;20041;-94
2023/01/16 01:33:38;;;;;;;42.78;25.85;;;;;;;;;;6318961;22;20007;-95
2023/01/16 01:36:05;;;;;;;48.88;26.35;;;;;;;;;;6292116;22;20011;-95
2023/01/16 01:38:31;;;;;;;47.30;28.00;;;;;;;;;;6292621;22;20000;-94
2023/01/16 01:41:13;;;;;;;52.30;28.30;;;;;;;;;;6325749;22;20000;-95
2023/01/16 01:43:47;;;;;;;49.65;27.02;;;;;;;;;;6292006;22;20023;-96
2023/01/16 01:46:22;;;;;;;48.78;26.70;;;;;;;;;;6298709;22;20016;-95
2023/01/16 01:48:48;;;;;;;44.53;25.30;;;;;;;;;;6325704;22;20007;-95
2023/01/16 01:51:36;;;;;;;45.67;27.10;;;;;;;;;;6326958;22;20303;-95
2023/01/16 01:54:06;;;;;;;43.85;25.48;;;;;;;;;;6326193;22;20003;-95
2023/01/16 01:57:13;;;;;;;42.25;26.35;;;;;;;;;;6327499;22;20003;-96
2023/01/16 02:00:01;;;;;;;44.42;25.83;;;;;;;;;;6301162;22;20029;-94
2023/01/16 02:02:35;;;;;;;43.97;25.42;;;;;;;;;;6328110;22;20003;-95
2023/01/16 02:05:19;;;;;;;42.08;25.08;;;;;;;;;;6300829;22;20003;-95
2023/01/16 02:07:48;;;;;;;44.38;25.52;;;;;;;;;;6301194;22;20359;-95
2023/01/16 02:13:49;;;;;;;50.17;26.55;;;;;;;;;;6327563;22;20014;-95
2023/01/16 02:19:41;;;;;;;48.92;26.80;;;;;;;;;;6328472;22;20041;-94
2023/01/16 02:22:13;;;;;;;50.90;26.35;;;;;;;;;;6324867;22;20019;-96
2023/01/16 02:24:58;;;;;;;45.38;26.42;;;;;;;;;;6326733;22;19999;-95
2023/01/16 02:33:50;;;;;;;45.85;25.85;;;;;;;;;;6314247;22;20002;-95
2023/01/16 02:36:37;;;;;;;51.17;26.25;;;;;;;;;;6287803;22;19996;-95
2023/01/16 02:39:11;;;;;;;49.65;27.05;;;;;;;;;;6314001;22;20026;-94
2023/01/16 02:45:11;;;;;;;50.97;28.20;;;;;;;;;;6328894;22;20101;-95
2023/01/16 02:47:57;;;;;;;50.25;26.67;;;;;;;;;;6326245;22;20090;-94
2023/01/16 02:50:39;;;;;;;52.45;28.02;;;;;;;;;;6325227;22;20373;-94
2023/01/16 02:53:26;;;;;;;49.78;27.50;;;;;;;;;;6326094;22;19995;-94
2023/01/16 02:56:03;;;;;;;47.88;26.50;;;;;;;;;;6298365;22;20010;-95
2023/01/16 02:58:32;;;;;;;47.65;26.42;;;;;;;;;;6324858;22;20111;-95
2023/01/16 03:01:02;;;;;;;49.83;25.73;;;;;;;;;;6323893;22;20462;-96
2023/01/16 03:03:58;;;;;;;48.35;25.17;;;;;;;;;;6273800;22;20278;-95
2023/01/16 03:06:36;;;;;;;46.53;25.88;;;;;;;;;;6199840;23;20008;-96
2023/01/16 03:09:24;;;;;;;45.42;24.42;;;;;;;;;;6196650;23;20001;-96
2023/01/16 03:15:03;;;;;;;43.97;24.65;;;;;;;;;;6200426;23;20061;-94
2023/01/16 03:17:52;;;;;;;43.95;23.92;;;;;;;;;;6175066;23;20016;-95
2023/01/16 03:20:42;;;;;;;40.35;24.40;;;;;;;;;;6138507;23;20275;-96
2023/01/16 03:23:50;;;;;;;;;;;;;;;;;;;;;
2023/01/16 03:26:23;;;;;;;46.60;23.88;;;;;;;;;;6082806;23;20397;-96
2023/01/16 03:29:09;;;;;;;40.17;22.67;;;;;;;;;;6057313;23;20441;-95
2023/01/16 03:32:01;;;;;;;44.72;25.38;;;;;;;;;;6082896;23;20430;-96
2023/01/16 03:43:12;;;;;;;44.00;23.67;;;;;;;;;;6317523;22;20072;-96
2023/01/16 03:46:02;;;;;;;39.17;22.13;;;;;;;;;;6328668;22;20011;-96
2023/01/16 03:48:53;;;;;;;44.50;22.58;;;;;;;;;;6303692;22;19999;-96
2023/01/16 03:54:14;;;;;;;40.85;22.38;;;;;;;;;;6298911;22;20023;-95
2023/01/16 03:57:17;;;;;;;38.15;21.73;;;;;;;;;;6299279;22;20353;-96
2023/01/16 03:59:46;;;;;;;;;;;;;;;;;;6290761;22;20059;-96
2023/01/16 04:02:20;;;;;;;37.92;20.50;;;;;;;;;;6293556;22;19906;-96
2023/01/16 04:05:08;;;;;;;35.88;21.10;;;;;;;;;;6282956;22;19996;-93
2023/01/16 04:07:44;;;;;;;38.05;20.92;;;;;;;;;;6259824;22;20354;-94
2023/01/16 04:10:12;;;;;;;36.78;21.42;;;;;;;;;;6286041;22;20074;-95
2023/01/16 04:15:44;;;;;;;42.58;22.80;;;;;;;;;;6286786;22;20014;-93
2023/01/16 04:18:11;;;;;;;373.15;108.20;;;;;;;;;;6291254;22;20008;-94
2023/01/16 04:20:40;;;;;;;163.20;55.05;;;;;;;;;;6290285;22;20066;-94
2023/01/16 04:23:06;;;;;;;55.00;27.85;;;;;;;;;;6262235;22;20330;-93
2023/01/16 04:25:32;;;;;;;50.38;29.13;;;;;;;;;;6288651;22;20004;-95
2023/01/16 04:31:02;;;;;;;43.70;25.58;;;;;;;;;;6287714;22;20381;-96
2023/01/16 04:33:28;;;;;;;43.72;25.75;;;;;;;;;;6291731;22;20052;-91
2023/01/16 04:35:54;;;;;;;47.67;27.23;;;;;;;;;;6255158;22;20014;-91
2023/01/16 04:38:20;;;;;;;43.63;25.67;;;;;;;;;;6282009;22;20006;-90
2023/01/16 04:40:47;;;;;;;47.97;28.38;;;;;;;;;;6282922;22;20019;-90
2023/01/16 04:43:31;;;;;;;47.38;26.13;;;;;;;;;;6255284;22;20469;-91
2023/01/16 04:45:57;;;;;;;44.15;23.60;;;;;;;;;;6255307;22;20006;-90
2023/01/16 04:48:24;;;;;;;39.13;23.30;;;;;;;;;;6282405;22;20004;-89
2023/01/16 04:50:50;;;;;;;41.47;22.98;;;;;;;;;;6255307;22;20004;-90
2023/01/16 04:53:16;;;;;;;44.78;23.48;;;;;;;;;;6261456;22;20016;-91
2023/01/16 04:55:42;;;;;;;39.80;23.50;;;;;;;;;;6281947;22;20355;-91
2023/01/16 04:58:08;;;;;;;35.72;20.92;;;;;;;;;;6281845;22;20023;-91
2023/01/16 05:00:34;;;;;;;40.78;21.88;;;;;;;;;;6280914;22;20010;-92
2023/01/16 05:03:00;;;;;;;41.45;22.42;;;;;;;;;;6282452;22;20000;-90
2023/01/16 05:05:26;;;;;;;39.53;23.38;;;;;;;;;;6279589;22;20063;-90
2023/01/16 05:10:37;;;;;;;53.10;26.27;;;;;;;;;;6282007;22;20058;-91
2023/01/16 05:13:03;;;;;;;58.70;28.05;;;;;;;;;;6281989;22;20366;-91
2023/01/16 05:15:30;;;;;;;73.38;31.08;;;;;;;;;;6280626;22;20008;-90
2023/01/16 05:17:56;;;;;;;72.00;30.10;;;;;;;;;;6280696;22;20008;-90
2023/01/16 05:20:23;;;;;;;76.38;30.90;;;;;;;;;;6280361;22;20011;-90
2023/01/16 05:22:49;;;;;;;79.63;30.52;;;;;;;;;;6281911;22;20050;-91
2023/01/16 05:25:15;;;;;;;86.25;31.95;;;;;;;;;;6282064;22;20008;-90
2023/01/16 05:27:41;;;;;;;94.40;33.47;;;;;;;;;;6279572;22;20401;-91
2023/01/16 05:30:07;;;;;;;97.30;36.80;;;;;;;;;;6282175;22;20010;-90
2023/01/16 05:32:33;;;;;;;93.13;36.80;;;;;;;;;;6283361;22;20020;-90
2023/01/16 05:35:03;;;;;;;62.50;32.90;;;;;;;;;;6281450;22;19996;-90
2023/01/16 05:37:29;;;;;;;39.58;23.63;;;;;;;;;;6283705;22;20002;-90
2023/01/16 05:39:56;;;;;;;49.70;25.08;;;;;;;;;;6283486;22;20007;-91
2023/01/16 05:42:24;;;;;;;47.15;25.98;;;;;;;;;;6283597;22;20067;-91
2023/01/16 05:44:51;;;;;;;50.40;26.65;;;;;;;;;;6284176;22;19999;-91
2023/01/16 05:47:17;;;;;;;41.10;21.73;;;;;;;;;;6283909;22;20027;-89
2023/01/16 05:49:43;;;;;;;49.42;22.02;;;;;;;;;;6287269;22;20407;-90
2023/01/16 05:52:09;;;;;;;56.97;22.05;;;;;;;;;;6313261;22;19999;-89
2023/01/16 05:54:35;;;;;;;59.58;21.60;;;;;;;;;;6314343;22;20027;-90
2023/01/16 05:57:02;;;;;;;56.72;21.92;;;;;;;;;;6287653;22;20350;-91
2023/01/16 05:59:28;;;;;;;59.17;21.20;;;;;;;;;;6314862;22;20074;-90
2023/01/16 06:01:54;;;;;;;57.17;22.30;;;;;;;;;;6287653;22;20004;-91
2023/01/16 06:04:20;;;;;;;46.28;22.00;;;;;;;;;;6314824;22;19999;-91
2023/01/16 06:06:46;;;;;;;44.15;24.95;;;;;;;;;;6287277;22;20362;-90
2023/01/16 06:09:12;;;;;;;50.28;26.15;;;;;;;;;;6314778;22;19999;-90
2023/01/16 06:11:38;;;;;;;51.50;27.67;;;;;;;;;;6287783;22;19999;-91
2023/01/16 06:14:04;;;;;;;74.22;34.50;;;;;;;;;;6314139;22;20007;-91
2023/01/16 06:16:31;;;;;;;98.45;35.95;;;;;;;;;;6287273;22;20003;-91
2023/01/16 06:18:57;;;;;;;62.15;28.65;;;;;;;;;;6287572;22;20003;-91
2023/01/16 06:21:23;;;;;;;60.50;26.67;;;;;;;;;;6314595;22;20003;-90
2023/01/16 06:23:50;;;;;;;67.25;27.23;;;;;;;;;;6287080;22;20340;-90
2023/01/16 06:26:49;;;;;;;58.85;24.80;;;;;;;;;;6314374;22;20014;-91
2023/01/16 06:29:16;;;;;;;59.50;26.02;;;;;;;;;;6287276;22;20086;-91
2023/01/16 06:31:42;;;;;;;60.92;25.67;;;;;;;;;;6287425;22;20003;-90
2023/01/16 06:34:08;;;;;;;57.90;24.92;;;;;;;;;;6287296;22;20433;-90
2023/01/16 06:36:34;;;;;;;58.92;25.98;;;;;;;;;;6287074;22;20266;-90
2023/01/16 06:39:00;;;;;;;56.97;25.58;;;;;;;;;;6314114;22;20282;-91
2023/01/16 06:41:26;;;;;;;46.47;22.65;;;;;;;;;;6313916;22;20083;-92
2023/01/16 06:43:52;;;;;;;36.40;19.90;;;;;;;;;;6313920;22;20374;-90
2023/01/16 06:46:18;;;;;;;45.53;22.58;;;;;;;;;;6286863;22;20007;-90
2023/01/16 06:48:44;;;;;;;50.88;23.73;;;;;;;;;;6314209;22;20019;-90
2023/01/16 06:51:10;;;;;;;63.63;26.80;;;;;;;;;;6287201;22;20003;-90
2023/01/16 06:53:37;;;;;;;63.00;26.30;;;;;;;;;;6286665;22;20019;-90
2023/01/16 06:56:03;;;;;;;55.78;25.20;;;;;;;;;;6314395;22;20261;-90
2023/01/16 06:58:29;;;;;;;56.03;24.73;;;;;;;;;;6286943;22;20007;-90
2023/01/16 07:00:55;;;;;;;58.38;25.45;;;;;;;;;;6286843;22;20055;-90
2023/01/16 07:03:22;;;;;;;61.83;26.83;;;;;;;;;;6313752;22;20392;-90
2023/01/16 07:05:48;;;;;;;55.00;24.40;;;;;;;;;;6314262;22;20045;-90
2023/01/16 07:08:14;;;;;;;52.75;24.65;;;;;;;;;;6314375;22;20015;-90
2023/01/16 07:10:40;;;;;;;52.10;25.08;;;;;;;;;;6314340;22;20003;-90
2023/01/16 07:13:06;;;;;;;49.28;23.25;;;;;;;;;;6286878;22;20007;-90
2023/01/16 07:23:57;;;;;;;45.77;23.57;;;;;;;;;;6313665;22;20034;-91
2023/01/16 07:26:24;;;;;;;42.30;22.42;;;;;;;;;;6313557;22;20267;-91
2023/01/16 07:28:50;;;;;;;38.90;22.13;;;;;;;;;;6286958;22;20003;-91
2023/01/16 07:31:16;;;;;;;38.15;20.05;;;;;;;;;;6314020;22;19995;-90
2023/01/16 07:33:42;;;;;;;37.78;19.92;;;;;;;;;;6313928;22;20036;-90
2023/01/16 07:36:09;;;;;;;53.40;23.48;;;;;;;;;;6286525;22;20364;-90
2023/01/16 07:38:35;;;;;;;56.65;24.83;;;;;;;;;;6313967;22;20056;-91
2023/01/16 07:41:01;;;;;;;60.80;28.00;;;;;;;;;;6286207;22;20006;-91
2023/01/16 07:43:27;;;;;;;58.45;26.75;;;;;;;;;;6313153;22;20027;-91
2023/01/16 07:45:53;;;;;;;63.95;29.48;;;;;;;;;;6286503;22;20007;-92
2023/01/16 07:48:22;;;;;;;63.80;28.55;;;;;;;;;;6286671;22;20007;-91
2023/01/16 07:50:51;;;;;;;59.15;28.58;;;;;;;;;;6313275;22;19999;-90
2023/01/16 07:53:21;;;;;;;55.65;26.67;;;;;;;;;;6286116;22;20042;-90
2023/01/16 07:55:51;;;;;;;57.22;25.00;;;;;;;;;;6313403;22;19999;-89
2023/01/16 07:58:17;;;;;;;50.42;26.67;;;;;;;;;;6286350;22;20038;-90
2023/01/16 08:00:43;;;;;;;51.25;26.90;;;;;;;;;;6313078;22;20030;-90
2023/01/16 08:03:17;;;;;;;48.47;25.60;;;;;;;;;;6293432;22;20363;-96
2023/01/16 08:13:22;;;;;;;35.78;19.63;;;;;;;;;;6319894;22;20378;-96
2023/01/16 08:15:50;;;;;;;63.70;23.95;;;;;;;;;;6294772;22;20013;-96
2023/01/16 08:18:22;;;;;;;38.67;20.30;;;;;;;;;;6322811;22;19999;-95
2023/01/16 08:20:51;;;;;;;37.90;18.75;;;;;;;;;;6322799;22;20019;-96
2023/01/16 08:23:22;;;;;;;36.05;17.95;;;;;;;;;;6267152;22;20026;-96
2023/01/16 08:25:52;;;;;;;35.83;17.83;;;;;;;;;;6264660;22;20000;-94
2023/01/16 08:28:18;;;;;;;38.47;19.27;;;;;;;;;;6266870;22;20014;-95
2023/01/16 08:30:44;;;;;;;33.67;19.00;;;;;;;;;;6265612;22;20003;-96
2023/01/16 08:33:20;;;;;;;33.70;19.08;;;;;;;;;;6253444;22;20409;-96
2023/01/16 08:35:46;;;;;;;34.75;20.30;;;;;;;;;;6321961;22;20006;-94
2023/01/16 08:38:12;;;;;;;37.65;21.55;;;;;;;;;;6315186;22;20075;-94
2023/01/16 08:40:38;;;;;;;44.90;22.75;;;;;;;;;;6315821;22;20258;-92
2023/01/16 08:51:24;;;;;;;49.28;23.60;;;;;;;;;;6325920;22;20010;-95
2023/01/16 08:53:52;;;;;;;48.22;22.10;;;;;;;;;;6325249;22;20010;-95
2023/01/16 08:56:19;;;;;;;44.47;22.45;;;;;;;;;;6323678;22;20006;-96
2023/01/16 08:58:46;;;;;;;56.13;24.80;;;;;;;;;;6320403;22;20007;-95
2023/01/16 09:01:13;;;;;;;50.45;25.38;;;;;;;;;;6320391;22;20003;-96
2023/01/16 09:03:51;;;;;;;42.10;22.20;;;;;;;;;;6320544;22;20007;-95
2023/01/16 09:06:17;;;;;;;51.20;24.95;;;;;;;;;;6323604;22;20064;-95
2023/01/16 09:08:47;;;;;;;48.42;22.27;;;;;;;;;;6324284;22;19999;-96
2023/01/16 09:14:01;;;;;;;55.85;23.15;;;;;;;;;;6323747;22;20014;-96
2023/01/16 09:16:33;;;;;;;103.63;35.53;;;;;;;;;;6267461;22;20014;-96
2023/01/16 09:19:01;;;;;;;52.10;21.58;;;;;;;;;;6270484;22;20004;-96
2023/01/16 09:21:51;;;;;;;56.55;21.65;;;;;;;;;;6271456;22;20004;-96
2023/01/16 09:24:27;;;;;;;44.65;19.90;;;;;;;;;;6263511;23;20004;-95
2023/01/16 09:27:07;;;;;;;37.85;17.48;;;;;;;;;;6187376;23;20001;-95
2023/01/16 09:29:34;;;;;;;52.40;20.42;;;;;;;;;;6263412;23;20004;-95
2023/01/16 09:32:07;;;;;;;57.10;19.88;;;;;;;;;;6261111;23;20004;-96
2023/01/16 09:34:33;;;;;;;;;;;;;;;;;;6239904;23;20008;-96
2023/01/16 09:37:02;;;;;;;47.28;20.92;;;;;;;;;;6236355;23;19922;-96
2023/01/16 09:39:54;;;;;;;54.58;19.08;;;;;;;;;;6261868;23;20000;-96
2023/01/16 09:45:23;;;;;;;;;;;;;;;;;;6262303;23;20087;-95
2023/01/16 10:00:05;;;;;;;;;;;;;;;;;;;;;
2023/01/16 10:11:16;;;;;;;31.70;17.33;;;;;;;;;;6267820;22;20023;-96
2023/01/16 10:24:34;;;;;;;33.97;17.25;;;;;;;;;;6314099;22;20030;-95
2023/01/16 10:29:55;;;;;;;37.83;17.85;;;;;;;;;;6321032;22;20007;-94
2023/01/16 10:32:52;;;;;;;40.40;19.58;;;;;;;;;;6278512;22;20378;-96
2023/01/16 11:05:25;;;;;;;33.88;17.63;;;;;;;;;;6322379;22;20065;-95
2023/01/16 11:08:23;;;;;;;35.92;18.10;;;;;;;;;;6250571;22;20032;-94
2023/01/16 11:10:50;;;;;;;30.98;19.30;;;;;;;;;;6278239;22;20006;-94
2023/01/16 11:22:08;;;;;;;112.53;39.75;;;;;;;;;;6298711;22;20023;-93
2023/01/16 11:24:36;;;;;;;88.75;36.78;;;;;;;;;;6287669;22;20082;-92
2023/01/16 11:27:06;;;;;;;65.72;30.42;;;;;;;;;;6287427;22;20007;-95
2023/01/16 11:29:38;;;;;;;43.65;22.20;;;;;;;;;;6314703;22;20021;-94
2023/01/16 11:32:07;;;;;;;43.80;22.38;;;;;;;;;;6314489;22;19999;-92
2023/01/16 11:34:34;;;;;;;35.15;18.00;;;;;;;;;;6314759;22;20000;-93
2023/01/16 11:37:05;;;;;;;32.28;19.08;;;;;;;;;;6287637;22;20433;-93
2023/01/16 11:39:33;;;;;;;32.88;18.50;;;;;;;;;;6314774;22;20007;-94
2023/01/16 11:46:01;;;;;;;32.80;20.08;;;;;;;;;;6314646;22;20000;-94
2023/01/16 11:47:48;;;;;;;34.28;19.67;;;;;;;;;;6314537;22;20019;-93
2023/01/16 11:50:28;;;;;;;42.78;21.85;;;;;;;;;;6288267;22;20026;-94
2023/01/16 11:52:54;;;;;;;55.28;23.58;;;;;;;;;;6315455;22;19999;-94
2023/01/16 11:55:22;;;;;;;34.22;18.48;;;;;;;;;;6315671;22;19995;-95
2023/01/16 11:57:54;;;;;;;45.50;21.25;;;;;;;;;;6315431;22;20373;-93
2023/01/16 12:00:23;;;;;;;47.58;23.77;;;;;;;;;;6314544;22;20003;-93
2023/01/16 12:03:08;;;;;;;44.60;18.08;;;;;;;;;;6286996;22;19995;-95
2023/01/16 12:05:58;;;;;;;47.05;21.10;;;;;;;;;;6288058;22;20010;-94
2023/01/16 12:08:39;;;;;;;61.22;21.83;;;;;;;;;;6313699;22;20350;-94
2023/01/16 12:11:09;;;;;;;46.10;19.55;;;;;;;;;;6314186;22;20082;-94
2023/01/16 12:16:47;;;;;;;46.22;19.83;;;;;;;;;;6313940;22;20030;-94
2023/01/16 12:19:49;;;;;;;;;;;;;;;;;;;;;
2023/01/16 12:22:27;;;;;;;67.07;22.67;;;;;;;;;;6197313;23;20103;-94
2023/01/16 12:25:06;;;;;;;52.80;22.55;;;;;;;;;;6250020;23;20004;-94
2023/01/16 12:27:51;;;;;;;60.22;21.75;;;;;;;;;;6250110;23;20008;-94
2023/01/16 12:30:22;;;;;;;64.75;21.02;;;;;;;;;;6249829;23;20008;-93
2023/01/16 12:33:21;;;;;;;47.53;20.13;;;;;;;;;;6250623;23;20299;-93
2023/01/16 12:36:08;;;;;;;63.17;23.48;;;;;;;;;;6249648;23;20015;-93
2023/01/16 12:38:56;;;;;;;;;;;;;;;;;;;;;
2023/01/16 12:44:13;;;;;;;45.35;19.30;;;;;;;;;;6250675;23;20030;-95
2023/01/16 12:46:41;;;;;;;35.17;21.33;;;;;;;;;;6250173;23;20030;-94
2023/01/16 12:49:34;;;;;;;64.07;19.67;;;;;;;;;;6250470;23;20032;-94
2023/01/16 12:52:03;;;;;;;54.95;18.38;;;;;;;;;;6250153;23;20028;-93
2023/01/16 12:54:47;;;;;;;45.15;19.48;;;;;;;;;;6249835;23;20019;-94
2023/01/16 12:57:32;;;;;;;48.65;21.05;;;;;;;;;;6308250;22;20007;-94
2023/01/16 13:00:12;;;;;;;40.38;21.63;;;;;;;;;;6288044;22;20091;-94
2023/01/16 13:03:02;;;;;;;31.73;18.35;;;;;;;;;;6288744;22;20348;-95
2023/01/16 13:05:32;;;;;;;29.85;17.95;;;;;;;;;;6291032;22;20007;-93
2023/01/16 13:08:03;;;;;;;33.47;19.50;;;;;;;;;;6291450;22;20003;-94
2023/01/16 13:13:25;;;;;;;28.27;17.20;;;;;;;;;;6314965;22;20369;-94
2023/01/16 13:15:58;;;;;;;29.40;17.27;;;;;;;;;;6317469;22;20011;-94
2023/01/16 13:18:29;;;;;;;28.48;17.35;;;;;;;;;;6290358;22;20301;-95
2023/01/16 13:21:00;;;;;;;31.92;18.33;;;;;;;;;;6299535;22;20015;-94
2023/01/16 13:23:51;;;;;;;29.77;17.85;;;;;;;;;;6322695;22;19999;-94
2023/01/16 13:26:21;;;;;;;42.95;19.10;;;;;;;;;;6242636;22;20016;-95
2023/01/16 13:28:56;;;;;;;60.58;18.58;;;;;;;;;;6254522;23;20000;-94
2023/01/16 13:58:30;;;;;;;43.50;20.05;;;;;;;;;;6326213;22;20049;-95
2023/01/16 14:01:13;;;;;;;40.55;20.02;;;;;;;;;;6359232;22;20369;-95
2023/01/16 14:19:36;;;;;;;40.47;20.48;;;;;;;;;;6272568;22;20024;-95
2023/01/16 14:32:18;;;;;;;59.42;29.60;;;;;;;;;;5994709;24;20012;-94
2023/01/16 14:34:57;;;;;;;58.25;29.25;;;;;;;;;;5988153;24;20006;-95
2023/01/16 14:37:32;;;;;;;48.75;28.10;;;;;;;;;;5987247;24;20004;-95
2023/01/16 14:40:02;;;;;;;58.17;32.30;;;;;;;;;;5987479;24;20008;-95
2023/01/16 14:56:54;;;;;;;;;;;;;;;;;;5991320;24;20040;-95
2023/01/16 14:59:37;;;;;;;41.85;23.75;;;;;;;;;;6064812;23;20181;-94
2023/01/16 15:02:30;;;;;;;53.38;26.92;;;;;;;;;;6104953;23;19999;-94
2023/01/16 15:04:59;;;;;;;45.03;25.65;;;;;;;;;;6125158;23;20384;-89
2023/01/16 15:07:48;;;;;;;60.40;33.40;;;;;;;;;;6199543;23;20065;-96
2023/01/16 15:41:16;;;;;;;;;;;;;;;;;;;;;
2023/01/16 15:47:13;;;;;;;52.58;27.85;;;;;;;;;;6227909;23;20393;-96
2023/01/16 15:49:55;;;;;;;62.08;30.30;;;;;;;;;;6232591;22;20020;-96
2023/01/16 15:52:38;;;;;;;49.03;28.98;;;;;;;;;;6237258;23;20016;-96
2023/01/16 15:55:11;;;;;;;51.20;31.15;;;;;;;;;;6262684;22;20022;-95
2023/01/16 15:57:54;;;;;;;63.22;36.95;;;;;;;;;;6258854;23;20000;-95
2023/01/16 16:00:23;;;;;;;53.53;31.50;;;;;;;;;;6256561;23;20001;-96
2023/01/16 16:02:50;;;;;;;56.00;32.05;;;;;;;;;;6265846;23;20007;-94
2023/01/16 16:05:17;;;;;;;59.47;31.95;;;;;;;;;;6258955;23;20359;-95
2023/01/16 16:07:45;;;;;;;53.88;32.78;;;;;;;;;;6233323;23;20027;-96
2023/01/16 16:11:51;;;;;;;59.83;34.63;;;;;;;;;;6233974;23;20001;-95
2023/01/16 16:13:06;;;;;;;76.07;38.10;;;;;;;;;;6263839;23;20008;-95
2023/01/16 16:18:23;;;;;;;96.57;38.83;;;;;;;;;;6258285;23;20019;-95
2023/01/16 16:20:53;;;;;;;94.75;40.55;;;;;;;;;;6237710;23;20010;-95
2023/01/16 16:23:21;;;;;;;109.45;43.35;;;;;;;;;;6246622;22;20004;-96
2023/01/16 16:25:55;;;;;;;91.65;37.75;;;;;;;;;;6290863;22;20015;-95
2023/01/16 16:40:06;;;;;;;70.05;35.22;;;;;;;;;;6251188;22;20027;-95
2023/01/16 16:42:35;;;;;;;55.03;29.55;;;;;;;;;;6253333;23;20007;-94
2023/01/16 16:48:15;;;;;;;55.55;30.02;;;;;;;;;;6275732;22;20020;-96
2023/01/16 16:50:45;;;;;;;72.28;31.70;;;;;;;;;;6285271;22;19999;-95
2023/01/16 16:53:14;;;;;;;69.00;31.85;;;;;;;;;;6282385;22;20380;-92
2023/01/16 16:55:42;;;;;;;66.07;32.28;;;;;;;;;;6282320;22;20012;-96
2023/01/16 17:01:16;;;;;;;80.93;31.65;;;;;;;;;;6281803;22;20014;-96
2023/01/16 17:03:43;;;;;;;91.15;33.05;;;;;;;;;;6281507;22;20000;-94
2023/01/16 17:06:13;;;;;;;89.68;32.80;;;;;;;;;;6280863;22;20394;-94
2023/01/16 17:08:39;;;;;;;86.88;32.03;;;;;;;;;;6281188;22;20019;-95
2023/01/16 17:11:06;;;;;;;60.78;28.85;;;;;;;;;;6280024;22;20359;-94
2023/01/16 17:16:36;;;;;;;65.32;29.38;;;;;;;;;;6281871;22;20010;-94
2023/01/16 17:19:02;;;;;;;59.05;28.92;;;;;;;;;;6280894;22;20053;-95
2023/01/16 17:21:28;;;;;;;58.33;30.63;;;;;;;;;;6282017;22;20027;-96
2023/01/16 17:23:54;;;;;;;58.17;29.20;;;;;;;;;;6275778;22;20008;-95
2023/01/16 17:26:20;;;;;;;59.35;31.48;;;;;;;;;;6252965;23;20386;-92
2023/01/16 17:31:50;;;;;;;48.83;28.55;;;;;;;;;;6285445;22;20014;-95
2023/01/16 17:34:17;;;;;;;54.08;30.60;;;;;;;;;;6257078;22;20045;-95
2023/01/16 17:36:43;;;;;;;56.22;33.80;;;;;;;;;;6283816;22;20014;-94
2023/01/16 17:39:09;;;;;;;69.53;39.80;;;;;;;;;;6283776;22;20087;-94
2023/01/16 17:45:51;;;;;;;75.05;40.80;;;;;;;;;;6257110;22;20003;-92
2023/01/16 17:47:26;;;;;;;67.05;37.85;;;;;;;;;;6290286;22;20027;-91
2023/01/16 17:52:38;;;;;;;61.08;34.28;;;;;;;;;;6283628;22;20018;-93
2023/01/16 17:57:49;;;;;;;71.35;39.13;;;;;;;;;;6283802;22;20077;-91
2023/01/16 18:03:18;;;;;;;117.88;38.03;;;;;;;;;;6283581;22;20019;-90
2023/01/16 18:05:44;;;;;;;139.82;47.50;;;;;;;;;;6256320;22;20038;-91
2023/01/16 18:08:11;;;;;;;134.00;49.25;;;;;;;;;;6283853;22;20010;-91
2023/01/16 18:10:37;;;;;;;104.82;43.75;;;;;;;;;;6256255;22;20008;-89
2023/01/16 18:18:53;;;;;;;84.68;43.50;;;;;;;;;;6283403;22;20034;-90
2023/01/16 18:24:04;;;;;;;74.43;40.03;;;;;;;;;;6283426;22;20091;-91
2023/01/16 18:26:30;;;;;;;98.18;39.47;;;;;;;;;;6283146;22;20347;-93
2023/01/16 18:28:56;;;;;;;131.15;40.75;;;;;;;;;;6283381;22;20000;-91
2023/01/16 18:31:22;;;;;;;126.32;40.58;;;;;;;;;;6256801;22;20075;-91
2023/01/16 18:33:51;;;;;;;86.97;40.92;;;;;;;;;;6255800;22;20022;-90
2023/01/16 18:36:18;;;;;;;92.47;34.42;;;;;;;;;;6256091;22;20067;-93
2023/01/16 19:03:30;;;;;;;86.35;38.63;;;;;;;;;;6283114;22;20022;-90
2023/01/16 19:05:56;;;;;;;66.55;34.20;;;;;;;;;;6256099;22;20031;-90
2023/01/16 19:08:23;;;;;;;62.30;33.83;;;;;;;;;;6283254;22;19996;-90
2023/01/16 19:10:50;;;;;;;76.88;36.22;;;;;;;;;;6255931;22;20061;-91
2023/01/16 19:13:38;;;;;;;166.88;40.60;;;;;;;;;;6255469;22;20027;-89
2023/01/16 19:18:49;;;;;;;79.18;33.92;;;;;;;;;;6282962;22;20146;-90
2023/01/16 19:21:15;;;;;;;71.22;34.45;;;;;;;;;;6283243;22;20042;-90
2023/01/16 19:23:41;;;;;;;71.88;39.63;;;;;;;;;;6256080;22;20011;-89
2023/01/16 19:26:08;;;;;;;62.88;36.75;;;;;;;;;;6255853;22;20039;-89
2023/01/16 19:28:34;;;;;;;62.75;37.35;;;;;;;;;;6255350;22;20004;-89
2023/01/16 19:31:00;;;;;;;57.13;33.05;;;;;;;;;;6283039;22;19999;-88
2023/01/16 19:33:28;;;;;;;57.28;32.80;;;;;;;;;;6282753;22;20002;-90
2023/01/16 19:35:54;;;;;;;55.88;33.78;;;;;;;;;;6282778;22;20008;-90
2023/01/16 19:38:20;;;;;;;49.28;32.38;;;;;;;;;;6255852;22;19999;-89
2023/01/16 19:40:48;;;;;;;45.75;28.80;;;;;;;;;;6255877;22;20354;-89
2023/01/16 19:48:43;;;;;;;57.97;33.38;;;;;;;;;;6282650;22;20402;-90
2023/01/16 19:51:09;;;;;;;84.28;42.55;;;;;;;;;;6255231;22;20294;-90
2023/01/16 19:53:36;;;;;;;76.80;38.13;;;;;;;;;;6255952;22;20362;-89
2023/01/16 19:56:02;;;;;;;61.35;34.22;;;;;;;;;;6282501;22;19999;-90
2023/01/16 19:58:28;;;;;;;54.65;33.58;;;;;;;;;;6282699;22;20007;-89
2023/01/16 20:00:54;;;;;;;52.70;32.28;;;;;;;;;;6255769;22;20031;-90
2023/01/16 20:03:20;;;;;;;58.17;34.35;;;;;;;;;;6255620;22;20078;-89
2023/01/16 20:05:46;;;;;;;82.28;43.08;;;;;;;;;;6282615;22;20007;-90
2023/01/16 20:08:13;;;;;;;77.78;46.20;;;;;;;;;;6282233;22;19999;-89
2023/01/16 20:10:39;;;;;;;64.80;40.03;;;;;;;;;;6255746;22;20424;-89
2023/01/16 20:13:05;;;;;;;68.32;43.97;;;;;;;;;;6255752;22;20359;-91
2023/01/16 20:15:31;;;;;;;108.55;62.42;;;;;;;;;;6282044;22;20273;-92
2023/01/16 20:17:57;;;;;;;83.57;49.17;;;;;;;;;;6282517;22;20259;-91
2023/01/16 20:20:23;;;;;;;82.90;47.80;;;;;;;;;;6282679;22;20060;-93
2023/01/16 20:22:49;;;;;;;59.45;37.88;;;;;;;;;;6282206;22;20007;-91
2023/01/16 20:25:17;;;;;;;106.45;36.83;;;;;;;;;;6282029;22;20024;-92
2023/01/16 20:27:43;;;;;;;239.88;48.25;;;;;;;;;;6255376;22;20090;-91
2023/01/16 20:30:13;;;;;;;165.75;39.15;;;;;;;;;;6282401;22;19996;-90
2023/01/16 20:32:39;;;;;;;131.23;43.00;;;;;;;;;;6281914;22;20243;-91
2023/01/16 20:35:05;;;;;;;94.82;42.05;;;;;;;;;;6255409;22;20004;-91